LIPR/RMI METAR and TAF weather

Enter ICAO airport designator
Station Type Date Time Source
LIPR METAR 2019/12/16 05:50 UTC NOAA

LIPR 160550Z AUTO VRB01KT 9999 BKN058/// 07/05 Q1021


Station Type Date Time Source
LIPR Decoded METAR 2019/12/16 05:50 UTC NOAA

Rimini, Italy (LIPR) 44-02N 012-37E 13M
Dec 16, 2019 - 12:50 AM EST / 2019.12.16 0550 UTC
Wind: Variable at 1 MPH (1 KT):0
Visibility: greater than 7 mile(s):0
Sky conditions: mostly cloudy
Temperature: 44 F (7 C)
Dew Point: 41 F (5 C)
Relative Humidity: 87%
Pressure (altimeter): 30.15 in. Hg (1021 hPa)
ob: LIPR 160550Z AUTO VRB01KT 9999 BKN058/// 07/05 Q1021
cycle: 6

Station Type Date Time Source
LIPR TAF 2016/08/23 03:00 UTC NOAA

TAF LIPR 230200Z 2303/2312 04007KT CAVOK
BECMG 2308/2310 02010KT

Example: see airport list